Time;durP1;ratioP1;P1;durP2;ratioP2;P2;SDS_P1;SDS_P2;PMS_P1;PMS_P2;Temp;Humidity;BMP_temperature;BMP_pressure;BME280_temperature;BME280_humidity;BME280_pressure;Samples;Min_cycle;Max_cycle;Signal;HPM_P1;HPM_P2
2023/05/19 00:01:46;;;;;;;7.27;3.63;;;8.20;99.90;;;;;;5030731;28;20628;-77
2023/05/19 00:04:14;;;;;;;7.43;3.33;;;8.10;99.90;;;;;;5030712;28;20309;-77
2023/05/19 00:06:43;;;;;;;9.77;3.70;;;8.30;99.90;;;;;;5030661;28;20790;-78
2023/05/19 00:09:11;;;;;;;7.27;3.47;;;8.30;99.90;;;;;;5031077;28;20200;-77
2023/05/19 00:11:40;;;;;;;7.80;3.23;;;8.30;99.90;;;;;;5031348;28;20302;-77
2023/05/19 00:14:09;;;;;;;11.37;3.50;;;8.40;99.90;;;;;;5031437;28;20227;-79
2023/05/19 00:16:39;;;;;;;8.07;3.80;;;8.50;99.90;;;;;;5033159;28;20207;-78
2023/05/19 00:19:08;;;;;;;5.60;3.17;;;8.40;99.90;;;;;;5032516;28;20203;-77
2023/05/19 00:21:37;;;;;;;5.43;3.10;;;8.50;99.90;;;;;;5038380;28;20195;-78
2023/05/19 00:24:04;;;;;;;7.47;3.47;;;8.50;99.90;;;;;;5052528;28;20230;-76
2023/05/19 00:26:31;;;;;;;7.70;3.30;;;8.50;99.90;;;;;;5052615;28;20205;-78
2023/05/19 00:28:59;;;;;;;9.67;3.80;;;8.50;99.90;;;;;;5033719;28;20545;-79
2023/05/19 00:31:26;;;;;;;7.43;3.57;;;8.50;99.90;;;;;;5032707;28;20248;-76
2023/05/19 00:33:53;;;;;;;5.67;3.50;;;8.50;99.90;;;;;;5040281;28;20278;-77
2023/05/19 00:36:20;;;;;;;8.10;3.90;;;8.40;99.90;;;;;;5032711;28;20719;-78
2023/05/19 00:38:46;;;;;;;8.23;3.73;;;8.50;99.90;;;;;;5040637;28;20287;-75
2023/05/19 00:41:13;;;;;;;5.30;3.30;;;8.50;99.90;;;;;;5042999;28;20202;-77
2023/05/19 00:43:40;;;;;;;5.93;3.60;;;8.50;99.90;;;;;;5052147;28;20226;-77
2023/05/19 00:46:09;;;;;;;5.07;3.20;;;8.60;99.90;;;;;;5051148;28;20207;-76
2023/05/19 00:48:36;;;;;;;5.03;3.60;;;8.60;99.90;;;;;;5052584;27;20199;-79
2023/05/19 00:51:05;;;;;;;5.83;3.50;;;8.20;99.90;;;;;;5035586;28;20242;-75
2023/05/19 00:53:33;;;;;;;7.87;3.50;;;8.00;99.90;;;;;;5031782;28;20224;-78
2023/05/19 00:56:00;;;;;;;9.83;3.57;;;7.90;99.90;;;;;;5046476;28;20286;-78
2023/05/19 00:58:29;;;;;;;9.47;3.73;;;7.80;99.90;;;;;;5050283;28;20205;-77
2023/05/19 01:01:02;;;;;;;8.93;3.43;;;7.90;99.90;;;;;;5033810;28;20207;-76
2023/05/19 01:03:31;;;;;;;7.33;3.53;;;7.90;99.90;;;;;;5033824;28;20236;-78
2023/05/19 01:06:00;;;;;;;6.57;3.40;;;8.00;99.90;;;;;;5050862;28;20218;-78
2023/05/19 01:08:27;;;;;;;7.80;3.60;;;7.90;99.90;;;;;;5053883;27;20218;-77
2023/05/19 01:10:54;;;;;;;4.63;3.20;;;7.80;99.90;;;;;;5034550;28;20290;-78
2023/05/19 01:13:21;;;;;;;7.63;4.50;;;7.70;99.90;;;;;;5034671;28;20581;-78
2023/05/19 01:15:59;;;;;;;6.40;4.40;;;7.90;99.90;;;;;;5033700;28;20207;-77
2023/05/19 01:18:43;;;;;;;7.73;4.20;;;8.00;99.90;;;;;;5034459;28;20184;-76
2023/05/19 01:21:43;;;;;;;6.97;3.70;;;8.10;99.90;;;;;;5033575;28;20275;-77
2023/05/19 01:24:34;;;;;;;6.60;4.30;;;8.10;99.90;;;;;;5036832;28;20219;-78
2023/05/19 01:27:25;;;;;;;7.30;3.40;;;8.30;99.90;;;;;;5034421;28;20199;-76
2023/05/19 01:30:12;;;;;;;6.33;3.33;;;7.80;99.90;;;;;;5041517;28;20466;-77
2023/05/19 01:32:41;;;;;;;6.87;3.43;;;7.60;99.90;;;;;;5052097;28;20207;-75
2023/05/19 01:35:10;;;;;;;5.80;3.40;;;7.50;99.90;;;;;;5052944;28;20685;-77
2023/05/19 01:37:38;;;;;;;8.20;4.03;;;7.50;99.90;;;;;;5053181;28;20213;-78
2023/05/19 01:40:07;;;;;;;4.57;3.20;;;7.60;99.90;;;;;;5053302;28;20294;-75
2023/05/19 01:42:36;;;;;;;6.50;4.23;;;7.70;99.90;;;;;;5053887;27;20228;-77
2023/05/19 01:45:04;;;;;;;8.90;4.40;;;7.60;99.90;;;;;;5053619;28;20225;-75
2023/05/19 01:47:37;;;;;;;8.60;3.90;;;7.70;99.90;;;;;;5052936;28;20199;-76
2023/05/19 01:50:04;;;;;;;11.27;4.00;;;7.80;99.90;;;;;;5053047;28;20302;-76
2023/05/19 01:52:31;;;;;;;6.80;4.03;;;7.80;99.90;;;;;;5053062;28;20665;-77
2023/05/19 01:54:57;;;;;;;6.97;3.90;;;7.80;99.90;;;;;;5047205;28;20707;-76
2023/05/19 01:57:33;;;;;;;9.63;4.40;;;7.80;99.90;;;;;;5033424;28;20207;-77
2023/05/19 02:00:08;;;;;;;8.43;4.87;;;7.70;99.90;;;;;;5050894;28;20209;-75
2023/05/19 02:02:48;;;;;;;8.70;3.73;;;7.70;99.90;;;;;;5054202;28;20187;-78
2023/05/19 02:05:27;;;;;;;8.53;4.27;;;7.70;99.90;;;;;;5052498;28;20221;-78
2023/05/19 02:08:01;;;;;;;6.60;3.97;;;7.70;99.90;;;;;;5054605;28;20187;-75
2023/05/19 02:10:30;;;;;;;7.70;4.17;;;7.80;99.90;;;;;;5053579;28;20183;-78
2023/05/19 02:13:01;;;;;;;8.13;4.20;;;7.70;99.90;;;;;;5054565;28;20227;-77
2023/05/19 02:15:37;;;;;;;10.37;4.30;;;7.70;99.90;;;;;;5054516;28;20213;-79
2023/05/19 02:18:08;;;;;;;8.43;4.40;;;7.70;99.90;;;;;;5052971;28;20691;-79
2023/05/19 02:20:35;;;;;;;7.10;4.23;;;7.70;99.90;;;;;;5039949;28;20187;-77
2023/05/19 02:23:01;;;;;;;12.30;5.33;;;7.70;99.90;;;;;;5054485;28;20294;-78
2023/05/19 02:25:28;;;;;;;6.03;4.03;;;7.80;99.90;;;;;;5053118;28;20706;-78
2023/05/19 02:27:55;;;;;;;9.90;4.20;;;7.80;99.90;;;;;;5054625;28;20662;-76
2023/05/19 02:30:22;;;;;;;9.13;3.70;;;7.70;99.90;;;;;;5049603;28;20203;-77
2023/05/19 02:32:49;;;;;;;6.63;3.93;;;7.60;99.90;;;;;;5033884;28;20601;-77
2023/05/19 02:35:17;;;;;;;6.93;3.77;;;7.60;99.90;;;;;;5033269;28;20569;-77
2023/05/19 02:37:46;;;;;;;8.60;3.83;;;7.70;99.90;;;;;;5034107;28;20726;-76
2023/05/19 02:40:13;;;;;;;7.47;3.80;;;7.60;99.90;;;;;;5049400;28;20199;-78
2023/05/19 02:42:39;;;;;;;6.87;3.73;;;7.70;99.90;;;;;;5054046;28;20206;-76
2023/05/19 02:45:07;;;;;;;11.57;4.10;;;7.60;99.90;;;;;;5041627;28;20215;-78
2023/05/19 02:47:34;;;;;;;5.20;3.97;;;7.60;99.90;;;;;;5034139;28;20571;-76
2023/05/19 02:50:01;;;;;;;7.60;4.20;;;7.50;99.90;;;;;;5033438;28;20200;-78
2023/05/19 02:52:29;;;;;;;7.50;3.90;;;7.60;99.90;;;;;;5033940;27;20606;-78
2023/05/19 02:54:56;;;;;;;8.70;4.10;;;7.50;99.90;;;;;;5041754;28;20222;-78
2023/05/19 02:57:22;;;;;;;9.83;3.60;;;7.50;99.90;;;;;;5053413;28;20195;-77
2023/05/19 02:59:49;;;;;;;7.77;3.87;;;7.40;99.90;;;;;;5053177;27;20203;-78
2023/05/19 03:02:16;;;;;;;8.00;4.00;;;7.40;99.90;;;;;;5053262;28;20248;-78
2023/05/19 03:04:44;;;;;;;5.80;4.20;;;7.40;99.90;;;;;;5053268;28;20233;-79
2023/05/19 03:07:12;;;;;;;6.63;4.00;;;7.40;99.90;;;;;;5053777;27;20204;-77
2023/05/19 03:09:40;;;;;;;7.73;4.30;;;7.50;99.90;;;;;;5049825;27;20199;-77
2023/05/19 03:12:07;;;;;;;7.87;4.17;;;7.50;99.90;;;;;;5055510;27;20231;-76
2023/05/19 03:14:36;;;;;;;6.83;4.07;;;7.60;99.90;;;;;;5053652;28;20674;-76
2023/05/19 03:17:03;;;;;;;8.97;4.50;;;7.50;99.90;;;;;;5053034;27;20282;-76
2023/05/19 03:19:31;;;;;;;8.33;3.80;;;7.50;99.90;;;;;;5044049;27;20219;-82
2023/05/19 03:22:00;;;;;;;10.20;4.30;;;7.50;99.90;;;;;;5034006;28;20203;-79
2023/05/19 03:24:27;;;;;;;7.87;4.10;;;7.60;99.90;;;;;;5051520;28;20219;-77
2023/05/19 03:26:55;;;;;;;9.43;4.43;;;7.50;99.90;;;;;;5051977;28;20191;-78
2023/05/19 03:29:22;;;;;;;9.37;4.47;;;7.60;99.90;;;;;;5051271;28;20578;-77
2023/05/19 03:31:50;;;;;;;8.73;4.63;;;7.50;99.90;;;;;;5037577;28;20243;-79
2023/05/19 03:34:17;;;;;;;7.60;4.13;;;7.40;99.90;;;;;;5049549;28;20877;-79
2023/05/19 03:36:44;;;;;;;6.57;4.10;;;7.50;99.90;;;;;;5047811;28;20202;-78
2023/05/19 03:39:11;;;;;;;7.13;3.90;;;7.40;99.90;;;;;;5051781;27;20199;-79
2023/05/19 03:41:38;;;;;;;9.83;3.77;;;7.50;99.90;;;;;;5050329;28;20667;-75
2023/05/19 03:44:06;;;;;;;6.07;4.10;;;7.40;99.90;;;;;;5050817;28;20302;-79
2023/05/19 03:46:33;;;;;;;7.53;4.63;;;7.50;99.90;;;;;;5039291;28;20203;-78
2023/05/19 03:49:00;;;;;;;7.77;4.67;;;7.50;99.90;;;;;;5051182;28;20271;-79
2023/05/19 03:51:28;;;;;;;7.17;4.37;;;7.50;99.90;;;;;;5047500;28;20237;-77
2023/05/19 03:53:55;;;;;;;7.03;4.30;;;7.50;99.90;;;;;;5030556;28;20586;-78
2023/05/19 03:56:25;;;;;;;7.20;4.37;;;7.60;99.90;;;;;;5051072;28;20199;-75
2023/05/19 03:58:53;;;;;;;6.73;3.70;;;7.60;99.90;;;;;;5050985;28;20282;-78
2023/05/19 04:01:21;;;;;;;8.37;4.67;;;7.30;99.90;;;;;;5052175;28;20200;-77
2023/05/19 04:03:48;;;;;;;8.47;4.43;;;7.60;99.90;;;;;;5051100;28;20223;-77
2023/05/19 04:06:16;;;;;;;8.23;4.60;;;8.00;99.90;;;;;;5051840;28;20236;-78
2023/05/19 04:08:44;;;;;;;8.60;4.47;;;8.50;99.90;;;;;;5050967;27;20206;-78
2023/05/19 04:11:11;;;;;;;8.60;4.27;;;8.70;99.90;;;;;;5053286;27;20206;-79
2023/05/19 04:13:38;;;;;;;8.73;4.70;;;8.50;99.90;;;;;;5047479;28;20227;-78
2023/05/19 04:16:08;;;;;;;8.83;5.00;;;8.30;99.90;;;;;;5051170;28;20195;-76
2023/05/19 04:18:36;;;;;;;11.23;4.80;;;8.20;99.90;;;;;;5047701;28;20217;-79
2023/05/19 04:21:03;;;;;;;7.30;4.30;;;8.10;99.90;;;;;;5044236;28;20206;-79
2023/05/19 04:23:30;;;;;;;7.70;4.23;;;8.10;99.90;;;;;;5044028;28;20265;-79
2023/05/19 04:25:57;;;;;;;9.07;4.60;;;8.10;99.90;;;;;;5051415;28;20206;-79
2023/05/19 04:28:24;;;;;;;12.30;4.90;;;8.20;99.90;;;;;;5048995;27;20638;-78
2023/05/19 04:30:51;;;;;;;9.43;4.63;;;8.20;99.90;;;;;;5051893;28;20191;-79
2023/05/19 04:33:18;;;;;;;7.70;4.50;;;8.20;99.90;;;;;;5050544;28;20608;-78
2023/05/19 04:35:49;;;;;;;7.80;4.50;;;8.30;99.90;;;;;;5053898;27;20251;-79
2023/05/19 04:38:17;;;;;;;9.67;4.40;;;8.30;99.90;;;;;;5053460;28;20254;-79
2023/05/19 04:40:44;;;;;;;31.87;6.70;;;8.30;99.90;;;;;;5036345;28;20263;-76
2023/05/19 04:43:11;;;;;;;9.03;4.77;;;8.30;99.90;;;;;;5054713;28;20223;-80
2023/05/19 04:45:41;;;;;;;8.13;4.60;;;8.30;99.90;;;;;;5057127;28;20207;-80
2023/05/19 04:48:08;;;;;;;9.60;4.53;;;8.30;99.90;;;;;;5056425;27;20203;-78
2023/05/19 04:50:37;;;;;;;10.43;4.87;;;8.30;99.90;;;;;;5055998;28;20199;-76
2023/05/19 04:53:05;;;;;;;11.17;4.67;;;8.30;99.90;;;;;;5055188;27;20282;-78
2023/05/19 04:55:33;;;;;;;7.30;4.60;;;8.50;99.90;;;;;;5054112;28;20205;-79
2023/05/19 04:58:00;;;;;;;8.50;4.30;;;8.50;99.90;;;;;;5055068;28;20271;-79
2023/05/19 05:00:27;;;;;;;9.67;4.80;;;8.50;99.90;;;;;;5054656;28;20207;-79
2023/05/19 05:02:56;;;;;;;9.50;4.63;;;8.50;99.90;;;;;;5048003;28;20274;-77
2023/05/19 05:05:23;;;;;;;10.77;5.00;;;8.70;99.90;;;;;;5053013;28;20205;-79
2023/05/19 05:07:52;;;;;;;9.47;4.70;;;8.80;99.90;;;;;;5054294;28;20662;-79
2023/05/19 05:10:21;;;;;;;8.43;5.17;;;8.80;99.90;;;;;;5052822;28;20222;-76
2023/05/19 05:12:49;;;;;;;9.27;4.87;;;8.90;99.90;;;;;;5048581;28;20298;-79
2023/05/19 05:15:16;;;;;;;8.80;4.47;;;9.10;99.90;;;;;;5054725;28;20627;-76
2023/05/19 05:17:44;;;;;;;8.67;4.87;;;9.20;99.90;;;;;;5044887;28;20200;-79
2023/05/19 05:20:12;;;;;;;7.67;4.67;;;9.20;99.90;;;;;;5042218;28;20210;-77
2023/05/19 05:22:39;;;;;;;7.77;4.70;;;9.20;99.90;;;;;;5053814;28;20195;-80
2023/05/19 05:25:08;;;;;;;12.90;5.07;;;9.30;99.90;;;;;;5053768;28;20211;-77
2023/05/19 05:27:36;;;;;;;10.40;5.40;;;9.20;99.90;;;;;;5051410;28;20663;-78
2023/05/19 05:30:04;;;;;;;6.70;4.83;;;9.40;99.90;;;;;;5053437;28;20203;-79
2023/05/19 05:32:33;;;;;;;8.77;4.97;;;9.60;99.90;;;;;;5053413;27;20211;-78
2023/05/19 05:35:00;;;;;;;9.30;4.93;;;9.70;99.90;;;;;;5053903;28;20238;-78
2023/05/19 05:37:27;;;;;;;10.30;5.17;;;9.70;99.90;;;;;;5053470;28;20203;-78
2023/05/19 05:39:54;;;;;;;8.07;4.53;;;9.90;99.90;;;;;;5053729;28;20199;-79
2023/05/19 05:42:21;;;;;;;7.07;4.50;;;9.80;99.90;;;;;;5053719;28;20210;-79
2023/05/19 05:44:49;;;;;;;9.83;5.07;;;9.60;99.90;;;;;;5052230;28;20644;-79
2023/05/19 05:47:16;;;;;;;10.43;5.10;;;9.70;99.90;;;;;;5053251;28;20207;-79
2023/05/19 05:49:47;;;;;;;14.23;7.67;;;9.70;99.90;;;;;;5053236;28;20207;-78
2023/05/19 05:52:18;;;;;;;11.13;5.67;;;9.90;99.90;;;;;;5050905;27;20202;-79
2023/05/19 05:54:46;;;;;;;11.07;4.97;;;10.00;99.90;;;;;;5053222;28;20222;-78
2023/05/19 05:57:13;;;;;;;9.50;5.43;;;10.10;99.90;;;;;;5052947;28;20203;-78
2023/05/19 05:59:40;;;;;;;11.53;5.97;;;10.30;99.90;;;;;;5052222;27;20582;-78
2023/05/19 06:02:08;;;;;;;8.73;4.77;;;10.30;99.90;;;;;;5052791;28;20207;-78
2023/05/19 06:04:36;;;;;;;8.80;5.03;;;10.40;99.90;;;;;;5051749;28;20227;-79
2023/05/19 06:07:03;;;;;;;9.80;5.03;;;10.50;99.90;;;;;;5053070;27;20203;-79
2023/05/19 06:09:30;;;;;;;11.20;5.37;;;10.50;99.90;;;;;;5053170;28;20203;-75
2023/05/19 06:11:58;;;;;;;9.70;5.10;;;10.60;99.90;;;;;;5053010;28;20697;-78
2023/05/19 06:14:25;;;;;;;10.07;6.07;;;10.60;99.90;;;;;;5052228;28;20238;-79
2023/05/19 06:16:51;;;;;;;11.10;4.90;;;10.80;99.90;;;;;;5052862;28;20238;-77
2023/05/19 06:19:21;;;;;;;10.67;5.10;;;10.80;99.90;;;;;;5051947;28;20218;-78
2023/05/19 06:21:48;;;;;;;10.50;5.20;;;10.80;99.90;;;;;;5053199;28;20215;-77
2023/05/19 06:24:14;;;;;;;11.87;4.50;;;10.90;99.90;;;;;;5036177;28;20219;-76
2023/05/19 06:26:41;;;;;;;11.57;5.20;;;10.80;99.90;;;;;;5032091;28;20203;-79
2023/05/19 06:29:08;;;;;;;10.57;5.60;;;11.00;99.90;;;;;;5039808;28;20226;-76
2023/05/19 06:31:35;;;;;;;12.63;5.60;;;10.90;99.90;;;;;;5051980;28;20210;-77
2023/05/19 06:34:02;;;;;;;9.37;5.37;;;10.90;99.90;;;;;;5047978;28;20648;-77
2023/05/19 06:36:30;;;;;;;10.07;4.83;;;11.00;99.90;;;;;;5038417;28;20218;-77
2023/05/19 06:38:57;;;;;;;11.43;4.80;;;11.00;99.90;;;;;;5049452;28;20282;-77
2023/05/19 06:41:24;;;;;;;7.27;4.57;;;11.30;99.90;;;;;;5052436;28;20204;-79
2023/05/19 06:43:51;;;;;;;9.77;5.63;;;11.20;99.90;;;;;;5052372;28;20219;-76
2023/05/19 06:46:17;;;;;;;10.43;5.57;;;11.20;99.90;;;;;;5053203;28;20222;-78
2023/05/19 06:48:44;;;;;;;10.17;5.03;;;11.50;99.90;;;;;;5064817;28;20203;-79
2023/05/19 06:51:11;;;;;;;9.53;5.40;;;11.50;99.90;;;;;;5073335;28;20199;-76
2023/05/19 06:53:39;;;;;;;9.50;4.93;;;11.70;99.90;;;;;;5102964;27;20226;-77
2023/05/19 06:56:06;;;;;;;8.03;4.80;;;11.80;99.90;;;;;;5052153;28;20199;-77
2023/05/19 06:58:33;;;;;;;11.87;5.10;;;11.40;99.90;;;;;;5052641;28;20203;-79
2023/05/19 07:01:00;;;;;;;10.07;4.87;;;11.70;99.90;;;;;;5049770;28;20211;-79
2023/05/19 07:03:27;;;;;;;7.53;4.00;;;11.90;99.90;;;;;;5052594;28;20699;-80
2023/05/19 07:05:54;;;;;;;7.33;4.20;;;11.90;99.90;;;;;;5038123;28;20211;-79
2023/05/19 07:08:21;;;;;;;7.03;3.90;;;11.80;99.90;;;;;;5095670;27;20294;-80
2023/05/19 07:10:49;;;;;;;8.33;3.97;;;11.90;99.90;;;;;;5053154;28;20199;-79
2023/05/19 07:13:16;;;;;;;10.27;5.43;;;11.90;99.90;;;;;;5052766;28;20230;-77
2023/05/19 07:15:47;;;;;;;10.17;4.87;;;12.10;99.90;;;;;;5052745;28;20209;-78
2023/05/19 07:18:14;;;;;;;9.33;4.30;;;12.20;99.90;;;;;;5052770;27;20199;-76
2023/05/19 07:20:41;;;;;;;10.80;4.30;;;12.10;99.90;;;;;;5052500;27;20195;-77
2023/05/19 07:23:08;;;;;;;7.57;4.40;;;12.20;99.90;;;;;;5048445;27;20219;-80
2023/05/19 07:25:35;;;;;;;10.73;4.10;;;12.10;99.90;;;;;;5038354;28;20207;-78
2023/05/19 07:28:03;;;;;;;9.83;4.40;;;12.20;99.90;;;;;;5049832;28;20206;-79
2023/05/19 07:30:30;;;;;;;12.50;4.13;;;12.30;99.90;;;;;;5041011;28;20210;-80
2023/05/19 07:32:57;;;;;;;10.13;4.80;;;12.30;99.90;;;;;;5032581;28;20230;-79
2023/05/19 07:35:26;;;;;;;12.30;4.37;;;12.50;99.90;;;;;;5036170;28;20210;-80
2023/05/19 07:37:52;;;;;;;8.17;4.53;;;12.50;99.90;;;;;;5032268;28;20452;-80
2023/05/19 07:40:19;;;;;;;10.17;5.37;;;12.50;99.90;;;;;;5052803;27;20207;-80
2023/05/19 07:42:49;;;;;;;11.00;4.90;;;12.50;99.90;;;;;;5046802;28;20216;-80
2023/05/19 07:45:17;;;;;;;12.43;4.53;;;12.70;99.90;;;;;;5039433;28;20207;-80
2023/05/19 07:47:44;;;;;;;9.27;4.50;;;12.50;99.90;;;;;;5047881;28;20227;-79
2023/05/19 07:50:11;;;;;;;9.17;4.87;;;12.50;99.90;;;;;;5047751;28;20206;-79
2023/05/19 07:52:38;;;;;;;10.67;5.10;;;12.60;99.90;;;;;;5049897;28;20202;-76
2023/05/19 07:55:05;;;;;;;12.23;5.50;;;12.60;99.90;;;;;;5050854;28;20583;-79
2023/05/19 07:57:32;;;;;;;11.37;5.47;;;12.60;99.90;;;;;;5046725;28;20226;-77
2023/05/19 07:59:59;;;;;;;10.63;5.10;;;12.70;99.90;;;;;;5036929;28;20259;-78
2023/05/19 08:02:27;;;;;;;13.83;6.00;;;12.50;99.90;;;;;;5050934;28;20199;-77
2023/05/19 08:04:55;;;;;;;11.53;5.50;;;12.80;99.90;;;;;;5051003;28;20191;-75
2023/05/19 08:07:23;;;;;;;16.20;5.53;;;13.00;99.90;;;;;;5051094;27;20234;-79
2023/05/19 08:09:49;;;;;;;9.03;4.97;;;13.00;99.90;;;;;;5035052;28;20216;-79
2023/05/19 08:12:16;;;;;;;11.37;5.03;;;12.90;99.90;;;;;;5040010;28;20635;-78
2023/05/19 08:14:43;;;;;;;11.37;5.67;;;13.20;99.90;;;;;;5051290;28;20219;-79
2023/05/19 08:17:10;;;;;;;16.37;5.83;;;13.50;99.90;;;;;;5052671;28;20203;-78
2023/05/19 08:19:38;;;;;;;12.67;5.43;;;13.20;99.90;;;;;;5043938;28;20203;-79
2023/05/19 08:22:05;;;;;;;11.30;4.50;;;13.20;99.90;;;;;;5047123;28;20195;-77
2023/05/19 08:24:32;;;;;;;10.17;3.90;;;13.20;99.90;;;;;;5043123;28;20230;-79
2023/05/19 08:26:59;;;;;;;12.20;4.20;;;13.60;99.90;;;;;;5043571;28;20204;-79
2023/05/19 08:29:26;;;;;;;7.30;4.30;;;13.60;99.90;;;;;;5051720;28;20234;-79
2023/05/19 08:31:53;;;;;;;10.00;3.87;;;13.60;99.90;;;;;;5052830;28;20213;-76
2023/05/19 08:34:20;;;;;;;7.50;4.10;;;13.70;99.90;;;;;;5042494;28;20228;-76
2023/05/19 08:36:48;;;;;;;7.43;3.70;;;13.90;99.90;;;;;;5042904;28;20203;-77
2023/05/19 08:39:16;;;;;;;7.07;3.60;;;13.90;99.90;;;;;;5052663;28;20294;-78
2023/05/19 08:41:44;;;;;;;8.73;4.33;;;13.80;99.90;;;;;;5047826;27;20728;-78
2023/05/19 08:44:11;;;;;;;6.83;3.53;;;14.00;99.90;;;;;;5049562;28;20223;-76
2023/05/19 08:46:38;;;;;;;7.23;4.20;;;14.20;99.90;;;;;;5036889;28;20203;-77
2023/05/19 08:49:10;;;;;;;9.63;3.90;;;14.20;99.90;;;;;;5046110;28;20214;-78
2023/05/19 08:51:47;;;;;;;9.70;4.17;;;14.30;99.90;;;;;;5040988;28;20206;-79
2023/05/19 08:54:16;;;;;;;11.43;4.20;;;14.40;99.90;;;;;;5048974;28;20223;-76
2023/05/19 08:56:45;;;;;;;12.40;4.43;;;14.60;99.90;;;;;;5043509;27;20610;-78
2023/05/19 08:59:14;;;;;;;11.60;4.80;;;14.70;99.90;;;;;;5042092;28;20274;-75
2023/05/19 09:01:44;;;;;;;8.87;4.10;;;15.10;99.90;;;;;;5045465;28;20218;-78
2023/05/19 09:04:12;;;;;;;8.30;3.80;;;15.30;99.90;;;;;;5046008;28;20263;-79
2023/05/19 09:06:41;;;;;;;7.07;3.90;;;15.40;99.90;;;;;;5047103;28;20209;-77
2023/05/19 09:09:08;;;;;;;10.33;4.00;;;15.90;99.90;;;;;;5060498;27;20607;-78
2023/05/19 09:11:36;;;;;;;8.27;3.97;;;15.80;99.90;;;;;;5049321;27;20589;-79
2023/05/19 09:14:03;;;;;;;11.23;4.70;;;16.10;99.90;;;;;;5045303;28;20567;-79
2023/05/19 09:16:31;;;;;;;7.63;3.70;;;16.00;99.90;;;;;;5046599;28;20222;-78
2023/05/19 09:18:59;;;;;;;7.43;3.63;;;16.10;99.90;;;;;;5079760;27;20200;-77
2023/05/19 09:21:30;;;;;;;6.45;3.55;;;16.40;99.90;;;;;;5036523;28;20211;-79
2023/05/19 09:23:58;;;;;;;7.93;3.45;;;16.60;99.90;;;;;;5041329;28;20219;-79
2023/05/19 09:26:25;;;;;;;7.15;3.78;;;16.50;99.90;;;;;;5047183;27;20203;-80
2023/05/19 09:28:58;;;;;;;7.03;3.10;;;16.60;99.90;;;;;;5048464;27;20206;-78
2023/05/19 09:31:31;;;;;;;8.48;3.20;;;17.20;99.90;;;;;;5039976;28;20229;-76
2023/05/19 09:33:58;;;;;;;8.13;3.22;;;17.10;99.90;;;;;;5067871;27;20227;-77
2023/05/19 09:36:25;;;;;;;8.38;3.35;;;16.90;1.00;;;;;;5050280;27;20235;-79
2023/05/19 09:38:52;;;;;;;6.13;3.30;;;17.30;99.90;;;;;;5053509;27;20281;-78
2023/05/19 09:41:19;;;;;;;4.38;2.97;;;17.30;99.90;;;;;;5045816;28;20232;-78
2023/05/19 09:43:55;;;;;;;8.43;3.45;;;17.00;1.00;;;;;;5059972;27;20231;-77
2023/05/19 09:46:27;;;;;;;4.10;3.10;;;17.60;1.00;;;;;;5051852;27;20199;-78
2023/05/19 09:48:57;;;;;;;5.38;3.28;;;17.40;1.00;;;;;;5063338;27;20218;-79
2023/05/19 09:51:24;;;;;;;6.32;2.80;;;17.30;99.90;;;;;;5076418;27;20300;-76
2023/05/19 09:53:52;;;;;;;5.38;3.30;;;17.00;51.10;;;;;;5065829;27;20561;-79
2023/05/19 09:56:22;;;;;;;5.25;3.08;;;17.30;6.10;;;;;;5051754;27;20280;-78
2023/05/19 09:58:49;;;;;;;6.43;2.92;;;17.40;1.00;;;;;;5060163;27;20210;-77
2023/05/19 10:01:27;;;;;;;6.03;2.80;;;17.40;1.00;;;;;;5038517;28;20860;-78
2023/05/19 10:03:56;;;;;;;4.35;2.33;;;17.20;99.90;;;;;;5035426;28;20245;-78
2023/05/19 10:06:24;;;;;;;7.88;2.88;;;17.50;1.00;;;;;;5062908;27;20203;-76
2023/05/19 10:08:53;;;;;;;4.60;2.83;;;18.40;99.90;;;;;;5046631;27;20603;-77
2023/05/19 10:11:22;;;;;;;5.30;2.75;;;18.40;26.30;;;;;;5045801;27;20258;-77
2023/05/19 10:13:51;;;;;;;5.78;2.55;;;18.60;99.90;;;;;;5045369;27;20226;-75
2023/05/19 10:16:22;;;;;;;4.43;2.60;;;19.00;85.60;;;;;;5080909;27;20666;-79
2023/05/19 10:18:51;;;;;;;4.97;2.60;;;18.60;1.00;;;;;;5044003;27;20743;-77
2023/05/19 10:21:18;;;;;;;7.07;3.33;;;18.00;1.00;;;;;;5081086;27;20240;-78
2023/05/19 10:23:45;;;;;;;6.18;2.78;;;17.40;99.90;;;;;;5058780;27;20329;-76
2023/05/19 10:26:15;;;;;;;4.43;2.72;;;17.10;1.00;;;;;;5046406;27;20204;-77
2023/05/19 10:28:44;;;;;;;3.63;2.42;;;17.30;1.00;;;;;;5042229;27;20207;-77
2023/05/19 10:31:18;;;;;;;6.80;2.53;;;17.80;99.90;;;;;;5049996;27;20647;-77
2023/05/19 10:34:03;;;;;;;3.38;2.42;;;17.90;99.90;;;;;;5034786;27;20234;-77
2023/05/19 10:36:49;;;;;;;4.75;2.90;;;17.10;1.00;;;;;;5094660;27;20322;-78
2023/05/19 10:39:26;;;;;;;5.15;2.42;;;16.80;1.00;;;;;;5051182;28;20203;-77
2023/05/19 10:42:03;;;;;;;5.07;2.15;;;17.20;99.90;;;;;;5043601;27;20203;-77
2023/05/19 10:44:43;;;;;;;2.22;1.90;;;18.10;1.00;;;;;;5048707;28;20231;-77
2023/05/19 10:47:10;;;;;;;6.88;2.65;;;18.40;1.00;;;;;;5052437;28;20232;-76
2023/05/19 10:49:39;;;;;;;4.28;2.60;;;18.30;99.90;;;;;;5050229;27;20283;-78
2023/05/19 10:52:20;;;;;;;6.40;2.20;;;18.00;1.00;;;;;;5118971;27;20206;-76
2023/05/19 10:54:47;;;;;;;6.05;2.28;;;18.10;1.00;;;;;;5056757;27;20311;-79
2023/05/19 10:57:17;;;;;;;2.53;2.08;;;18.40;99.90;;;;;;5050303;28;20210;-78
2023/05/19 10:59:45;;;;;;;7.72;2.50;;;18.30;1.00;;;;;;5048236;28;20229;-76
2023/05/19 11:02:39;;;;;;;3.10;2.33;;;18.50;99.90;;;;;;5047300;27;20761;-75
2023/05/19 11:05:16;;;;;;;4.85;2.17;;;18.90;1.00;;;;;;5046182;28;20195;-79
2023/05/19 11:07:52;;;;;;;5.22;2.03;;;19.00;1.00;;;;;;5049462;28;20204;-79
2023/05/19 11:10:23;;;;;;;4.40;2.30;;;19.00;1.00;;;;;;5051670;28;20690;-79
2023/05/19 11:12:50;;;;;;;4.07;1.77;;;19.50;1.00;;;;;;5052956;28;20218;-79
2023/05/19 11:15:17;;;;;;;3.78;2.03;;;19.70;1.00;;;;;;5050630;27;20226;-77
2023/05/19 11:17:48;;;;;;;5.10;2.17;;;19.80;1.00;;;;;;5048110;27;20229;-78
2023/05/19 11:20:23;;;;;;;3.42;2.17;;;18.20;99.90;;;;;;5035894;28;20211;-77
2023/05/19 11:23:07;;;;;;;2.85;2.17;;;18.00;99.90;;;;;;5049562;28;20336;-78
2023/05/19 11:25:45;;;;;;;3.60;1.80;;;18.40;1.00;;;;;;5041965;28;20540;-76
2023/05/19 11:28:13;;;;;;;2.28;1.75;;;18.50;1.00;;;;;;5054340;28;20566;-77
2023/05/19 11:30:42;;;;;;;1.92;1.50;;;18.30;99.90;;;;;;5053774;27;20222;-76
2023/05/19 11:33:08;;;;;;;2.10;1.40;;;18.80;1.00;;;;;;5049324;28;20267;-79
2023/05/19 11:35:37;;;;;;;3.58;2.08;;;18.90;1.00;;;;;;5052903;28;20227;-79
2023/05/19 11:38:05;;;;;;;3.20;1.65;;;19.30;1.00;;;;;;5044274;28;20210;-76
2023/05/19 11:40:32;;;;;;;2.42;1.70;;;18.90;1.00;;;;;;5067434;27;20218;-78
2023/05/19 11:43:00;;;;;;;3.20;1.50;;;18.70;99.90;;;;;;5052573;28;20582;-78
2023/05/19 11:45:28;;;;;;;4.32;1.98;;;19.20;1.00;;;;;;5052867;27;20191;-79
2023/05/19 11:47:56;;;;;;;2.28;1.60;;;19.20;1.00;;;;;;5070399;27;20229;-77
2023/05/19 11:50:24;;;;;;;3.75;1.63;;;19.20;1.00;;;;;;5074905;27;20572;-78
2023/05/19 11:52:52;;;;;;;3.67;2.47;;;19.20;1.00;;;;;;5044069;28;20227;-75
2023/05/19 11:55:22;;;;;;;6.43;2.88;;;18.40;1.00;;;;;;5045975;28;20229;-76
2023/05/19 11:57:57;;;;;;;2.72;2.00;;;17.70;1.00;;;;;;5040901;28;20630;-77
2023/05/19 12:00:24;;;;;;;2.58;1.58;;;17.30;1.00;;;;;;5054525;28;20696;-79
2023/05/19 12:02:53;;;;;;;4.97;1.77;;;18.20;1.00;;;;;;5045981;28;20219;-79
2023/05/19 12:05:21;;;;;;;2.75;1.92;;;18.10;1.00;;;;;;5054287;27;20199;-77
2023/05/19 12:07:48;;;;;;;2.90;1.75;;;18.70;1.00;;;;;;5043105;28;20262;-77
2023/05/19 12:10:18;;;;;;;2.15;1.70;;;18.40;1.00;;;;;;5033175;28;20271;-77
2023/05/19 12:12:45;;;;;;;1.65;1.50;;;17.90;1.00;;;;;;5041974;28;20263;-76
2023/05/19 12:15:12;;;;;;;3.28;1.77;;;18.30;99.90;;;;;;5049163;28;20223;-77
2023/05/19 12:17:40;;;;;;;3.92;1.73;;;19.00;92.10;;;;;;5046301;27;20515;-78
2023/05/19 12:20:09;;;;;;;4.82;1.98;;;19.20;99.90;;;;;;5041163;28;20630;-75
2023/05/19 12:22:36;;;;;;;2.45;1.85;;;18.50;99.90;;;;;;5041216;28;20225;-77
2023/05/19 12:25:04;;;;;;;3.78;1.63;;;18.60;99.90;;;;;;5036426;28;20207;-79
2023/05/19 12:27:37;;;;;;;4.03;2.05;;;18.80;99.90;;;;;;5047373;28;20228;-79
2023/05/19 12:30:05;;;;;;;2.72;1.60;;;19.20;1.00;;;;;;5085513;27;20218;-79
2023/05/19 12:32:34;;;;;;;2.22;1.70;;;19.20;99.90;;;;;;5065666;27;20206;-79
2023/05/19 12:35:03;;;;;;;4.53;1.80;;;19.50;31.30;;;;;;5043606;28;20223;-79
2023/05/19 12:37:29;;;;;;;2.47;1.50;;;19.60;1.00;;;;;;5040435;28;20238;-80
2023/05/19 12:39:57;;;;;;;4.50;1.58;;;19.50;1.00;;;;;;5037658;28;20207;-76
2023/05/19 12:42:29;;;;;;;1.80;1.40;;;19.30;1.00;;;;;;5044841;28;20242;-79
2023/05/19 12:44:59;;;;;;;2.17;1.40;;;19.50;1.00;;;;;;5044402;27;20195;-78
2023/05/19 12:47:31;;;;;;;2.60;1.58;;;19.70;1.00;;;;;;5059853;27;20231;-78
2023/05/19 12:50:02;;;;;;;2.10;1.85;;;19.70;1.00;;;;;;5038679;28;20226;-78
2023/05/19 12:52:31;;;;;;;2.00;1.60;;;19.80;99.90;;;;;;5046282;28;20566;-77
2023/05/19 12:55:01;;;;;;;2.47;1.40;;;18.60;1.00;;;;;;5042891;27;20701;-77
2023/05/19 12:57:29;;;;;;;1.92;1.50;;;19.00;1.00;;;;;;5037433;28;20195;-78
2023/05/19 13:00:15;;;;;;;1.63;1.42;;;19.10;1.00;;;;;;5048069;28;20284;-78